Terminal Aerodrome Forecast
Issued by NWS Oklahoma City, OK

Home | Current Version | Previous Version | Text Only | Print | Product List | Glossary On
Versions: 1 2 3 4 5 6 7 8 9 10 11 12 13 14 15 16 17 18 19 20 21 22 23 24 25 26 27 28
000
FTUS44 KOUN 052320
TAFOUN
TAF
KOUN 052320Z 0600/0624 16008KT 6SM -RA BR SCT025 OVC040
      TEMPO 0600/0604 3SM -TSRA OVC020CB
     FM060400 15015G22KT 5SM BR OVC020
      TEMPO 0604/0608 2SM -TSRA OVC010CB
     FM060900 16017G24KT 5SM -DZ BR OVC015
     FM061300 16020G27KT P6SM OVC015
     FM061800 17020G27KT P6SM OVC040=

USA.gov is the U.S. government's official web portal to all federal, state and local government web resources and services.